sensor_id;sensor_type;location;lat;lon;timestamp;P1;durP1;ratioP1;P2;durP2;ratioP2
55037;SDS011;40937;53.594;10.034;2023-04-01T00:00:57;7.70;;;5.28;;
55037;SDS011;40937;53.594;10.034;2023-04-01T00:03:26;7.72;;;4.85;;
55037;SDS011;40937;53.594;10.034;2023-04-01T00:05:54;12.38;;;6.18;;
55037;SDS011;40937;53.594;10.034;2023-04-01T00:08:22;8.13;;;5.85;;
55037;SDS011;40937;53.594;10.034;2023-04-01T00:10:52;6.60;;;5.43;;
55037;SDS011;40937;53.594;10.034;2023-04-01T00:13:20;8.18;;;5.07;;
55037;SDS011;40937;53.594;10.034;2023-04-01T00:15:51;6.97;;;5.78;;
55037;SDS011;40937;53.594;10.034;2023-04-01T00:18:19;9.02;;;5.82;;
55037;SDS011;40937;53.594;10.034;2023-04-01T00:20:47;11.57;;;5.63;;
55037;SDS011;40937;53.594;10.034;2023-04-01T00:23:16;9.93;;;5.78;;
55037;SDS011;40937;53.594;10.034;2023-04-01T00:25:44;10.13;;;5.47;;
55037;SDS011;40937;53.594;10.034;2023-04-01T00:28:15;9.15;;;5.18;;
55037;SDS011;40937;53.594;10.034;2023-04-01T00:30:43;9.07;;;5.80;;
55037;SDS011;40937;53.594;10.034;2023-04-01T00:33:12;6.78;;;5.25;;
55037;SDS011;40937;53.594;10.034;2023-04-01T00:35:39;7.28;;;5.03;;
55037;SDS011;40937;53.594;10.034;2023-04-01T00:38:07;9.95;;;5.25;;
55037;SDS011;40937;53.594;10.034;2023-04-01T00:40:37;8.98;;;5.57;;
55037;SDS011;40937;53.594;10.034;2023-04-01T00:43:12;11.27;;;5.65;;
55037;SDS011;40937;53.594;10.034;2023-04-01T00:45:47;7.93;;;5.00;;
55037;SDS011;40937;53.594;10.034;2023-04-01T00:48:16;8.70;;;5.80;;
55037;SDS011;40937;53.594;10.034;2023-04-01T00:50:48;7.15;;;5.07;;
55037;SDS011;40937;53.594;10.034;2023-04-01T00:53:19;9.25;;;4.90;;
55037;SDS011;40937;53.594;10.034;2023-04-01T00:55:49;9.00;;;5.22;;
55037;SDS011;40937;53.594;10.034;2023-04-01T00:58:21;10.60;;;5.30;;
55037;SDS011;40937;53.594;10.034;2023-04-01T01:00:52;10.98;;;5.10;;
55037;SDS011;40937;53.594;10.034;2023-04-01T01:03:21;9.07;;;5.45;;
55037;SDS011;40937;53.594;10.034;2023-04-01T01:05:54;6.93;;;5.10;;
55037;SDS011;40937;53.594;10.034;2023-04-01T01:08:46;7.03;;;5.70;;
55037;SDS011;40937;53.594;10.034;2023-04-01T01:11:27;13.10;;;7.00;;
55037;SDS011;40937;53.594;10.034;2023-04-01T01:14:01;6.63;;;5.30;;
55037;SDS011;40937;53.594;10.034;2023-04-01T01:16:42;7.82;;;5.57;;
55037;SDS011;40937;53.594;10.034;2023-04-01T01:19:17;8.50;;;5.47;;
55037;SDS011;40937;53.594;10.034;2023-04-01T01:25:04;11.02;;;5.97;;
55037;SDS011;40937;53.594;10.034;2023-04-01T01:27:47;6.97;;;5.82;;
55037;SDS011;40937;53.594;10.034;2023-04-01T01:33:13;7.78;;;6.03;;
55037;SDS011;40937;53.594;10.034;2023-04-01T01:35:53;11.85;;;6.32;;
55037;SDS011;40937;53.594;10.034;2023-04-01T01:38:23;8.30;;;5.88;;
55037;SDS011;40937;53.594;10.034;2023-04-01T01:40:58;9.25;;;6.28;;
55037;SDS011;40937;53.594;10.034;2023-04-01T01:43:29;10.52;;;5.85;;
55037;SDS011;40937;53.594;10.034;2023-04-01T01:46:00;8.60;;;6.10;;
55037;SDS011;40937;53.594;10.034;2023-04-01T01:48:32;9.45;;;5.65;;
55037;SDS011;40937;53.594;10.034;2023-04-01T01:51:02;7.97;;;5.38;;
55037;SDS011;40937;53.594;10.034;2023-04-01T01:53:30;9.43;;;5.72;;
55037;SDS011;40937;53.594;10.034;2023-04-01T01:55:58;5.22;;;4.70;;
55037;SDS011;40937;53.594;10.034;2023-04-01T01:58:27;8.00;;;5.55;;
55037;SDS011;40937;53.594;10.034;2023-04-01T02:00:58;8.63;;;5.72;;
55037;SDS011;40937;53.594;10.034;2023-04-01T02:03:28;10.25;;;6.35;;
55037;SDS011;40937;53.594;10.034;2023-04-01T02:05:59;7.88;;;5.72;;
55037;SDS011;40937;53.594;10.034;2023-04-01T02:08:30;7.85;;;5.78;;
55037;SDS011;40937;53.594;10.034;2023-04-01T02:11:02;7.18;;;6.40;;
55037;SDS011;40937;53.594;10.034;2023-04-01T02:13:39;14.13;;;6.28;;
55037;SDS011;40937;53.594;10.034;2023-04-01T02:16:14;10.73;;;5.93;;
55037;SDS011;40937;53.594;10.034;2023-04-01T02:18:47;12.13;;;5.60;;
55037;SDS011;40937;53.594;10.034;2023-04-01T02:21:17;7.05;;;5.90;;
55037;SDS011;40937;53.594;10.034;2023-04-01T02:23:48;8.75;;;5.45;;
55037;SDS011;40937;53.594;10.034;2023-04-01T02:26:17;7.00;;;5.35;;
55037;SDS011;40937;53.594;10.034;2023-04-01T02:28:44;9.27;;;5.90;;
55037;SDS011;40937;53.594;10.034;2023-04-01T02:31:13;10.15;;;5.85;;
55037;SDS011;40937;53.594;10.034;2023-04-01T02:33:41;7.38;;;5.70;;
55037;SDS011;40937;53.594;10.034;2023-04-01T02:36:10;15.98;;;6.75;;
55037;SDS011;40937;53.594;10.034;2023-04-01T02:38:39;9.10;;;6.00;;
55037;SDS011;40937;53.594;10.034;2023-04-01T02:41:08;7.95;;;5.97;;
55037;SDS011;40937;53.594;10.034;2023-04-01T02:43:35;9.02;;;6.57;;
55037;SDS011;40937;53.594;10.034;2023-04-01T02:46:03;9.45;;;6.45;;
55037;SDS011;40937;53.594;10.034;2023-04-01T02:48:30;8.07;;;5.40;;
55037;SDS011;40937;53.594;10.034;2023-04-01T02:50:57;7.07;;;5.88;;
55037;SDS011;40937;53.594;10.034;2023-04-01T02:53:25;11.07;;;6.45;;
55037;SDS011;40937;53.594;10.034;2023-04-01T02:55:52;9.65;;;6.15;;
55037;SDS011;40937;53.594;10.034;2023-04-01T02:58:20;11.45;;;6.40;;
55037;SDS011;40937;53.594;10.034;2023-04-01T03:00:48;8.85;;;5.93;;
55037;SDS011;40937;53.594;10.034;2023-04-01T03:03:15;10.52;;;7.25;;
55037;SDS011;40937;53.594;10.034;2023-04-01T03:05:42;9.77;;;5.72;;
55037;SDS011;40937;53.594;10.034;2023-04-01T03:08:10;12.65;;;7.32;;
55037;SDS011;40937;53.594;10.034;2023-04-01T03:10:37;8.68;;;7.43;;
55037;SDS011;40937;53.594;10.034;2023-04-01T03:13:04;8.90;;;7.78;;
55037;SDS011;40937;53.594;10.034;2023-04-01T03:15:33;11.18;;;7.68;;
55037;SDS011;40937;53.594;10.034;2023-04-01T03:18:00;10.52;;;7.35;;
55037;SDS011;40937;53.594;10.034;2023-04-01T03:20:28;9.25;;;7.72;;
55037;SDS011;40937;53.594;10.034;2023-04-01T03:22:55;7.80;;;6.93;;
55037;SDS011;40937;53.594;10.034;2023-04-01T03:25:23;9.45;;;8.15;;
55037;SDS011;40937;53.594;10.034;2023-04-01T03:27:50;8.48;;;7.32;;
55037;SDS011;40937;53.594;10.034;2023-04-01T03:30:17;8.85;;;7.45;;
55037;SDS011;40937;53.594;10.034;2023-04-01T03:32:51;10.27;;;7.88;;
55037;SDS011;40937;53.594;10.034;2023-04-01T03:35:18;8.40;;;7.40;;
55037;SDS011;40937;53.594;10.034;2023-04-01T03:37:45;13.20;;;8.27;;
55037;SDS011;40937;53.594;10.034;2023-04-01T03:40:13;7.82;;;6.85;;
55037;SDS011;40937;53.594;10.034;2023-04-01T03:42:40;8.45;;;7.40;;
55037;SDS011;40937;53.594;10.034;2023-04-01T03:45:08;10.73;;;7.47;;
55037;SDS011;40937;53.594;10.034;2023-04-01T03:47:37;10.15;;;7.05;;
55037;SDS011;40937;53.594;10.034;2023-04-01T03:50:07;8.75;;;6.65;;
55037;SDS011;40937;53.594;10.034;2023-04-01T03:52:35;8.05;;;7.25;;
55037;SDS011;40937;53.594;10.034;2023-04-01T03:55:03;8.63;;;7.13;;
55037;SDS011;40937;53.594;10.034;2023-04-01T03:57:31;10.27;;;7.88;;
55037;SDS011;40937;53.594;10.034;2023-04-01T04:00:05;9.30;;;7.57;;
55037;SDS011;40937;53.594;10.034;2023-04-01T04:02:39;8.30;;;7.47;;
55037;SDS011;40937;53.594;10.034;2023-04-01T04:05:08;13.38;;;7.43;;
55037;SDS011;40937;53.594;10.034;2023-04-01T04:07:37;7.68;;;6.97;;
55037;SDS011;40937;53.594;10.034;2023-04-01T04:10:07;9.38;;;8.50;;
55037;SDS011;40937;53.594;10.034;2023-04-01T04:12:35;8.38;;;7.57;;
55037;SDS011;40937;53.594;10.034;2023-04-01T04:15:02;9.20;;;8.32;;
55037;SDS011;40937;53.594;10.034;2023-04-01T04:17:30;10.63;;;8.23;;
55037;SDS011;40937;53.594;10.034;2023-04-01T04:19:57;8.82;;;8.10;;
55037;SDS011;40937;53.594;10.034;2023-04-01T04:22:26;8.90;;;8.07;;
55037;SDS011;40937;53.594;10.034;2023-04-01T04:24:53;8.82;;;7.93;;
55037;SDS011;40937;53.594;10.034;2023-04-01T04:27:21;9.45;;;8.43;;
55037;SDS011;40937;53.594;10.034;2023-04-01T04:29:59;9.05;;;8.25;;
55037;SDS011;40937;53.594;10.034;2023-04-01T04:32:27;9.98;;;8.65;;
55037;SDS011;40937;53.594;10.034;2023-04-01T04:34:54;9.77;;;8.80;;
55037;SDS011;40937;53.594;10.034;2023-04-01T04:37:21;9.85;;;8.98;;
55037;SDS011;40937;53.594;10.034;2023-04-01T04:39:50;9.98;;;9.05;;
55037;SDS011;40937;53.594;10.034;2023-04-01T04:42:17;9.43;;;8.55;;
55037;SDS011;40937;53.594;10.034;2023-04-01T04:44:45;10.73;;;9.93;;
55037;SDS011;40937;53.594;10.034;2023-04-01T04:47:12;11.43;;;10.52;;
55037;SDS011;40937;53.594;10.034;2023-04-01T04:49:39;10.02;;;9.32;;
55037;SDS011;40937;53.594;10.034;2023-04-01T04:52:09;10.63;;;9.50;;
55037;SDS011;40937;53.594;10.034;2023-04-01T04:54:36;11.05;;;10.05;;
55037;SDS011;40937;53.594;10.034;2023-04-01T04:57:05;10.63;;;9.70;;
55037;SDS011;40937;53.594;10.034;2023-04-01T04:59:39;10.20;;;9.27;;
55037;SDS011;40937;53.594;10.034;2023-04-01T05:02:11;10.77;;;9.82;;
55037;SDS011;40937;53.594;10.034;2023-04-01T05:04:38;12.25;;;9.75;;
55037;SDS011;40937;53.594;10.034;2023-04-01T05:07:08;9.82;;;9.13;;
55037;SDS011;40937;53.594;10.034;2023-04-01T05:09:36;10.00;;;9.25;;
55037;SDS011;40937;53.594;10.034;2023-04-01T05:12:05;9.55;;;8.55;;
55037;SDS011;40937;53.594;10.034;2023-04-01T05:14:51;10.07;;;9.23;;
55037;SDS011;40937;53.594;10.034;2023-04-01T05:17:18;9.20;;;8.40;;
55037;SDS011;40937;53.594;10.034;2023-04-01T05:19:45;3.80;;;3.60;;
55037;SDS011;40937;53.594;10.034;2023-04-01T05:22:13;1.85;;;1.75;;
55037;SDS011;40937;53.594;10.034;2023-04-01T05:24:42;1.30;;;1.30;;
55037;SDS011;40937;53.594;10.034;2023-04-01T05:27:10;1.30;;;1.20;;
55037;SDS011;40937;53.594;10.034;2023-04-01T05:32:25;1.30;;;1.30;;
55037;SDS011;40937;53.594;10.034;2023-04-01T05:34:52;1.10;;;1.10;;
55037;SDS011;40937;53.594;10.034;2023-04-01T05:37:19;1.08;;;1.08;;
55037;SDS011;40937;53.594;10.034;2023-04-01T05:39:48;3.60;;;1.35;;
55037;SDS011;40937;53.594;10.034;2023-04-01T05:42:18;2.80;;;1.38;;
55037;SDS011;40937;53.594;10.034;2023-04-01T05:44:45;1.00;;;1.00;;
55037;SDS011;40937;53.594;10.034;2023-04-01T05:47:31;1.10;;;1.10;;
55037;SDS011;40937;53.594;10.034;2023-04-01T05:49:59;3.42;;;1.48;;
55037;SDS011;40937;53.594;10.034;2023-04-01T05:52:26;1.65;;;1.30;;
55037;SDS011;40937;53.594;10.034;2023-04-01T05:54:53;1.60;;;1.50;;
55037;SDS011;40937;53.594;10.034;2023-04-01T05:57:22;1.58;;;1.50;;
55037;SDS011;40937;53.594;10.034;2023-04-01T05:59:49;1.55;;;1.45;;
55037;SDS011;40937;53.594;10.034;2023-04-01T06:02:16;1.60;;;1.50;;
55037;SDS011;40937;53.594;10.034;2023-04-01T06:04:45;1.27;;;1.27;;
55037;SDS011;40937;53.594;10.034;2023-04-01T06:07:13;1.20;;;1.20;;
55037;SDS011;40937;53.594;10.034;2023-04-01T06:09:41;2.10;;;1.73;;
55037;SDS011;40937;53.594;10.034;2023-04-01T06:12:23;1.70;;;1.60;;
55037;SDS011;40937;53.594;10.034;2023-04-01T06:15:09;1.73;;;1.63;;
55037;SDS011;40937;53.594;10.034;2023-04-01T06:17:51;1.70;;;1.60;;
55037;SDS011;40937;53.594;10.034;2023-04-01T06:20:30;1.90;;;1.80;;
55037;SDS011;40937;53.594;10.034;2023-04-01T06:23:06;1.80;;;1.70;;
55037;SDS011;40937;53.594;10.034;2023-04-01T06:26:07;1.90;;;1.80;;
55037;SDS011;40937;53.594;10.034;2023-04-01T06:31:52;1.60;;;1.50;;
55037;SDS011;40937;53.594;10.034;2023-04-01T06:34:47;1.80;;;1.70;;
55037;SDS011;40937;53.594;10.034;2023-04-01T06:37:31;1.90;;;1.80;;
55037;SDS011;40937;53.594;10.034;2023-04-01T06:40:21;2.05;;;1.77;;
55037;SDS011;40937;53.594;10.034;2023-04-01T06:43:07;1.70;;;1.60;;
55037;SDS011;40937;53.594;10.034;2023-04-01T06:46:04;1.40;;;1.30;;
55037;SDS011;40937;53.594;10.034;2023-04-01T06:49:05;1.70;;;1.60;;
55037;SDS011;40937;53.594;10.034;2023-04-01T06:52:04;1.45;;;1.20;;
55037;SDS011;40937;53.594;10.034;2023-04-01T06:54:57;2.05;;;1.52;;
55037;SDS011;40937;53.594;10.034;2023-04-01T06:58:00;1.58;;;1.40;;
55037;SDS011;40937;53.594;10.034;2023-04-01T07:00:31;1.35;;;1.00;;
55037;SDS011;40937;53.594;10.034;2023-04-01T07:03:06;3.30;;;1.65;;
55037;SDS011;40937;53.594;10.034;2023-04-01T07:05:43;1.00;;;1.00;;
55037;SDS011;40937;53.594;10.034;2023-04-01T07:08:11;1.10;;;1.08;;
55037;SDS011;40937;53.594;10.034;2023-04-01T07:10:45;1.75;;;1.25;;
55037;SDS011;40937;53.594;10.034;2023-04-01T07:13:36;1.00;;;0.98;;
55037;SDS011;40937;53.594;10.034;2023-04-01T07:16:15;1.00;;;1.00;;
55037;SDS011;40937;53.594;10.034;2023-04-01T07:18:47;1.20;;;1.10;;
55037;SDS011;40937;53.594;10.034;2023-04-01T07:21:22;1.02;;;1.00;;
55037;SDS011;40937;53.594;10.034;2023-04-01T07:23:56;1.67;;;0.93;;
55037;SDS011;40937;53.594;10.034;2023-04-01T07:26:52;0.80;;;0.80;;
55037;SDS011;40937;53.594;10.034;2023-04-01T07:29:23;1.00;;;1.00;;
55037;SDS011;40937;53.594;10.034;2023-04-01T07:32:13;5.05;;;1.30;;
55037;SDS011;40937;53.594;10.034;2023-04-01T07:34:53;1.20;;;0.93;;
55037;SDS011;40937;53.594;10.034;2023-04-01T07:37:30;1.05;;;1.05;;
55037;SDS011;40937;53.594;10.034;2023-04-01T07:40:10;0.98;;;0.98;;
55037;SDS011;40937;53.594;10.034;2023-04-01T07:42:51;1.08;;;1.08;;
55037;SDS011;40937;53.594;10.034;2023-04-01T07:45:30;0.93;;;0.93;;
55037;SDS011;40937;53.594;10.034;2023-04-01T07:48:08;1.23;;;1.13;;
55037;SDS011;40937;53.594;10.034;2023-04-01T07:50:49;1.63;;;1.25;;
55037;SDS011;40937;53.594;10.034;2023-04-01T07:53:23;1.83;;;1.48;;
55037;SDS011;40937;53.594;10.034;2023-04-01T07:56:00;1.00;;;1.00;;
55037;SDS011;40937;53.594;10.034;2023-04-01T07:58:38;1.20;;;1.20;;
55037;SDS011;40937;53.594;10.034;2023-04-01T08:01:39;1.13;;;1.10;;
55037;SDS011;40937;53.594;10.034;2023-04-01T08:07:09;1.20;;;1.10;;
55037;SDS011;40937;53.594;10.034;2023-04-01T08:09:59;1.52;;;1.00;;
55037;SDS011;40937;53.594;10.034;2023-04-01T08:12:56;1.20;;;1.05;;
55037;SDS011;40937;53.594;10.034;2023-04-01T08:15:48;0.80;;;0.80;;
55037;SDS011;40937;53.594;10.034;2023-04-01T08:18:36;1.85;;;1.02;;
55037;SDS011;40937;53.594;10.034;2023-04-01T08:21:10;1.27;;;1.20;;
55037;SDS011;40937;53.594;10.034;2023-04-01T08:23:43;1.13;;;0.90;;
55037;SDS011;40937;53.594;10.034;2023-04-01T08:26:16;1.02;;;1.02;;
55037;SDS011;40937;53.594;10.034;2023-04-01T08:28:50;1.10;;;1.02;;
55037;SDS011;40937;53.594;10.034;2023-04-01T08:31:24;1.10;;;1.00;;
55037;SDS011;40937;53.594;10.034;2023-04-01T08:33:57;1.17;;;1.08;;
55037;SDS011;40937;53.594;10.034;2023-04-01T08:36:28;1.13;;;1.02;;
55037;SDS011;40937;53.594;10.034;2023-04-01T08:39:13;0.80;;;0.80;;
55037;SDS011;40937;53.594;10.034;2023-04-01T08:42:08;1.20;;;1.10;;
55037;SDS011;40937;53.594;10.034;2023-04-01T08:51:40;1.35;;;1.02;;
55037;SDS011;40937;53.594;10.034;2023-04-01T08:54:37;1.10;;;1.10;;
55037;SDS011;40937;53.594;10.034;2023-04-01T08:57:45;1.05;;;1.05;;
55037;SDS011;40937;53.594;10.034;2023-04-01T09:00:50;1.40;;;1.08;;
55037;SDS011;40937;53.594;10.034;2023-04-01T09:03:37;1.13;;;1.13;;
55037;SDS011;40937;53.594;10.034;2023-04-01T09:09:06;0.80;;;0.80;;
55037;SDS011;40937;53.594;10.034;2023-04-01T09:12:01;0.90;;;0.90;;
55037;SDS011;40937;53.594;10.034;2023-04-01T09:14:49;0.90;;;0.90;;
55037;SDS011;40937;53.594;10.034;2023-04-01T09:17:59;2.50;;;1.00;;
55037;SDS011;40937;53.594;10.034;2023-04-01T09:21:12;0.82;;;0.82;;
55037;SDS011;40937;53.594;10.034;2023-04-01T09:24:07;1.03;;;1.03;;
55037;SDS011;40937;53.594;10.034;2023-04-01T09:27:06;0.98;;;0.98;;
55037;SDS011;40937;53.594;10.034;2023-04-01T09:29:58;0.93;;;0.93;;
55037;SDS011;40937;53.594;10.034;2023-04-01T09:32:51;1.17;;;0.82;;
55037;SDS011;40937;53.594;10.034;2023-04-01T09:35:38;3.58;;;3.30;;
55037;SDS011;40937;53.594;10.034;2023-04-01T09:38:18;1.52;;;1.42;;
55037;SDS011;40937;53.594;10.034;2023-04-01T09:47:51;4.75;;;1.35;;
55037;SDS011;40937;53.594;10.034;2023-04-01T09:50:42;1.23;;;1.13;;
55037;SDS011;40937;53.594;10.034;2023-04-01T09:53:33;0.98;;;0.98;;
55037;SDS011;40937;53.594;10.034;2023-04-01T09:56:23;1.40;;;1.30;;
55037;SDS011;40937;53.594;10.034;2023-04-01T10:09:08;1.35;;;1.25;;
55037;SDS011;40937;53.594;10.034;2023-04-01T10:15:11;0.80;;;0.80;;
55037;SDS011;40937;53.594;10.034;2023-04-01T10:21:25;2.08;;;0.82;;
55037;SDS011;40937;53.594;10.034;2023-04-01T10:27:17;2.17;;;0.80;;
55037;SDS011;40937;53.594;10.034;2023-04-01T10:33:32;1.95;;;0.80;;
55037;SDS011;40937;53.594;10.034;2023-04-01T10:42:36;1.25;;;1.17;;
55037;SDS011;40937;53.594;10.034;2023-04-01T10:55:37;0.70;;;0.70;;
55037;SDS011;40937;53.594;10.034;2023-04-01T11:02:40;0.90;;;0.90;;
55037;SDS011;40937;53.594;10.034;2023-04-01T11:09:09;0.80;;;0.80;;
55037;SDS011;40937;53.594;10.034;2023-04-01T11:18:32;0.77;;;0.77;;
55037;SDS011;40937;53.594;10.034;2023-04-01T11:24:46;1.25;;;1.15;;
55037;SDS011;40937;53.594;10.034;2023-04-01T11:27:48;1.30;;;1.20;;
55037;SDS011;40937;53.594;10.034;2023-04-01T11:30:29;1.25;;;1.23;;
55037;SDS011;40937;53.594;10.034;2023-04-01T11:33:08;2.10;;;1.55;;
55037;SDS011;40937;53.594;10.034;2023-04-01T11:35:51;2.08;;;1.88;;
55037;SDS011;40937;53.594;10.034;2023-04-01T11:38:30;2.17;;;1.60;;
55037;SDS011;40937;53.594;10.034;2023-04-01T11:41:30;2.28;;;1.80;;
55037;SDS011;40937;53.594;10.034;2023-04-01T11:44:33;1.73;;;1.63;;
55037;SDS011;40937;53.594;10.034;2023-04-01T11:47:24;2.03;;;1.92;;
55037;SDS011;40937;53.594;10.034;2023-04-01T11:50:14;2.40;;;2.03;;
55037;SDS011;40937;53.594;10.034;2023-04-01T11:52:55;5.30;;;2.13;;
55037;SDS011;40937;53.594;10.034;2023-04-01T11:55:46;2.92;;;2.70;;
55037;SDS011;40937;53.594;10.034;2023-04-01T12:01:29;2.70;;;2.50;;
55037;SDS011;40937;53.594;10.034;2023-04-01T12:04:19;2.95;;;2.50;;
55037;SDS011;40937;53.594;10.034;2023-04-01T12:07:10;3.28;;;2.97;;
55037;SDS011;40937;53.594;10.034;2023-04-01T12:09:48;3.03;;;2.83;;
55037;SDS011;40937;53.594;10.034;2023-04-01T12:12:25;3.65;;;3.10;;
55037;SDS011;40937;53.594;10.034;2023-04-01T12:15:02;3.17;;;2.90;;
55037;SDS011;40937;53.594;10.034;2023-04-01T12:17:42;4.18;;;3.78;;
55037;SDS011;40937;53.594;10.034;2023-04-01T12:20:25;4.82;;;3.80;;
55037;SDS011;40937;53.594;10.034;2023-04-01T12:22:59;3.97;;;3.58;;
55037;SDS011;40937;53.594;10.034;2023-04-01T12:25:53;2.90;;;2.70;;
55037;SDS011;40937;53.594;10.034;2023-04-01T12:28:29;6.22;;;3.50;;
55037;SDS011;40937;53.594;10.034;2023-04-01T12:31:17;3.15;;;2.85;;
55037;SDS011;40937;53.594;10.034;2023-04-01T12:33:57;3.97;;;3.63;;
55037;SDS011;40937;53.594;10.034;2023-04-01T12:36:41;3.72;;;3.42;;
55037;SDS011;40937;53.594;10.034;2023-04-01T12:39:22;3.75;;;3.45;;
55037;SDS011;40937;53.594;10.034;2023-04-01T12:42:07;4.20;;;3.80;;
55037;SDS011;40937;53.594;10.034;2023-04-01T12:44:54;4.30;;;3.90;;
55037;SDS011;40937;53.594;10.034;2023-04-01T12:50:52;5.53;;;4.20;;
55037;SDS011;40937;53.594;10.034;2023-04-01T12:53:44;4.10;;;3.80;;
55037;SDS011;40937;53.594;10.034;2023-04-01T12:56:28;6.60;;;3.55;;
55037;SDS011;40937;53.594;10.034;2023-04-01T13:02:11;4.30;;;3.42;;
55037;SDS011;40937;53.594;10.034;2023-04-01T13:10:53;3.85;;;3.17;;
55037;SDS011;40937;53.594;10.034;2023-04-01T13:13:43;3.50;;;3.20;;
55037;SDS011;40937;53.594;10.034;2023-04-01T13:16:42;3.85;;;2.72;;
55037;SDS011;40937;53.594;10.034;2023-04-01T13:19:16;3.88;;;3.00;;
55037;SDS011;40937;53.594;10.034;2023-04-01T13:21:51;3.75;;;2.90;;
55037;SDS011;40937;53.594;10.034;2023-04-01T13:24:25;3.42;;;3.10;;
55037;SDS011;40937;53.594;10.034;2023-04-01T13:27:01;3.47;;;2.45;;
55037;SDS011;40937;53.594;10.034;2023-04-01T13:29:36;2.78;;;2.53;;
55037;SDS011;40937;53.594;10.034;2023-04-01T13:32:18;3.63;;;2.65;;
55037;SDS011;40937;53.594;10.034;2023-04-01T13:34:55;3.75;;;2.70;;
55037;SDS011;40937;53.594;10.034;2023-04-01T13:37:35;4.57;;;2.92;;
55037;SDS011;40937;53.594;10.034;2023-04-01T13:40:15;3.20;;;2.63;;
55037;SDS011;40937;53.594;10.034;2023-04-01T13:42:53;5.15;;;3.45;;
55037;SDS011;40937;53.594;10.034;2023-04-01T13:45:26;4.53;;;3.47;;
55037;SDS011;40937;53.594;10.034;2023-04-01T13:48:18;4.38;;;3.88;;
55037;SDS011;40937;53.594;10.034;2023-04-01T13:51:07;7.10;;;4.38;;
55037;SDS011;40937;53.594;10.034;2023-04-01T13:53:49;5.22;;;4.18;;
55037;SDS011;40937;53.594;10.034;2023-04-01T13:56:24;4.90;;;3.65;;
55037;SDS011;40937;53.594;10.034;2023-04-01T13:59:03;5.28;;;3.67;;
55037;SDS011;40937;53.594;10.034;2023-04-01T14:01:49;4.18;;;3.50;;
55037;SDS011;40937;53.594;10.034;2023-04-01T14:04:30;5.13;;;3.70;;
55037;SDS011;40937;53.594;10.034;2023-04-01T14:07:10;3.30;;;3.10;;
55037;SDS011;40937;53.594;10.034;2023-04-01T14:09:50;3.50;;;3.25;;
55037;SDS011;40937;53.594;10.034;2023-04-01T14:12:29;6.18;;;3.53;;
55037;SDS011;40937;53.594;10.034;2023-04-01T14:15:07;6.88;;;3.47;;
55037;SDS011;40937;53.594;10.034;2023-04-01T14:17:54;4.60;;;3.80;;
55037;SDS011;40937;53.594;10.034;2023-04-01T14:20:39;4.38;;;3.55;;
55037;SDS011;40937;53.594;10.034;2023-04-01T14:23:13;6.75;;;4.60;;
55037;SDS011;40937;53.594;10.034;2023-04-01T14:26:04;5.28;;;4.57;;
55037;SDS011;40937;53.594;10.034;2023-04-01T14:28:48;8.13;;;4.75;;
55037;SDS011;40937;53.594;10.034;2023-04-01T14:31:30;5.00;;;4.50;;
55037;SDS011;40937;53.594;10.034;2023-04-01T14:34:10;4.68;;;4.25;;
55037;SDS011;40937;53.594;10.034;2023-04-01T14:37:00;6.68;;;4.50;;
55037;SDS011;40937;53.594;10.034;2023-04-01T14:39:43;4.90;;;3.90;;
55037;SDS011;40937;53.594;10.034;2023-04-01T14:42:32;6.22;;;4.40;;
55037;SDS011;40937;53.594;10.034;2023-04-01T14:45:23;4.63;;;4.22;;
55037;SDS011;40937;53.594;10.034;2023-04-01T14:48:13;8.50;;;4.95;;
55037;SDS011;40937;53.594;10.034;2023-04-01T14:51:03;4.88;;;3.92;;
55037;SDS011;40937;53.594;10.034;2023-04-01T14:54:02;4.20;;;3.80;;
55037;SDS011;40937;53.594;10.034;2023-04-01T14:56:40;8.53;;;5.90;;
55037;SDS011;40937;53.594;10.034;2023-04-01T14:59:13;9.55;;;5.47;;
55037;SDS011;40937;53.594;10.034;2023-04-01T15:02:02;9.88;;;5.43;;
55037;SDS011;40937;53.594;10.034;2023-04-01T15:04:57;9.10;;;5.13;;
55037;SDS011;40937;53.594;10.034;2023-04-01T15:07:42;6.53;;;5.18;;
55037;SDS011;40937;53.594;10.034;2023-04-01T15:10:43;5.85;;;5.20;;
55037;SDS011;40937;53.594;10.034;2023-04-01T15:13:24;8.60;;;5.60;;
55037;SDS011;40937;53.594;10.034;2023-04-01T15:16:04;8.95;;;5.63;;
55037;SDS011;40937;53.594;10.034;2023-04-01T15:18:44;6.22;;;5.13;;
55037;SDS011;40937;53.594;10.034;2023-04-01T15:21:21;7.80;;;5.50;;
55037;SDS011;40937;53.594;10.034;2023-04-01T15:24:04;8.57;;;5.43;;
55037;SDS011;40937;53.594;10.034;2023-04-01T15:26:39;9.18;;;5.30;;
55037;SDS011;40937;53.594;10.034;2023-04-01T15:29:23;10.55;;;5.72;;
55037;SDS011;40937;53.594;10.034;2023-04-01T15:32:04;10.10;;;5.85;;
55037;SDS011;40937;53.594;10.034;2023-04-01T15:34:43;11.82;;;6.13;;
55037;SDS011;40937;53.594;10.034;2023-04-01T15:37:17;6.90;;;6.15;;
55037;SDS011;40937;53.594;10.034;2023-04-01T15:39:55;7.45;;;6.43;;
55037;SDS011;40937;53.594;10.034;2023-04-01T15:42:30;8.40;;;6.50;;
55037;SDS011;40937;53.594;10.034;2023-04-01T15:45:17;8.60;;;6.70;;
55037;SDS011;40937;53.594;10.034;2023-04-01T15:48:05;8.15;;;6.10;;
55037;SDS011;40937;53.594;10.034;2023-04-01T15:50:48;11.20;;;6.50;;
55037;SDS011;40937;53.594;10.034;2023-04-01T15:53:24;9.32;;;5.80;;
55037;SDS011;40937;53.594;10.034;2023-04-01T15:56:10;8.93;;;6.35;;
55037;SDS011;40937;53.594;10.034;2023-04-01T16:02:07;8.98;;;6.75;;
55037;SDS011;40937;53.594;10.034;2023-04-01T16:04:44;10.27;;;6.65;;
55037;SDS011;40937;53.594;10.034;2023-04-01T16:16:09;12.18;;;7.07;;
55037;SDS011;40937;53.594;10.034;2023-04-01T16:19:07;8.48;;;6.40;;
55037;SDS011;40937;53.594;10.034;2023-04-01T16:22:01;8.95;;;6.45;;
55037;SDS011;40937;53.594;10.034;2023-04-01T16:24:38;9.25;;;6.05;;
55037;SDS011;40937;53.594;10.034;2023-04-01T16:27:12;7.72;;;6.60;;
55037;SDS011;40937;53.594;10.034;2023-04-01T16:29:46;8.75;;;6.00;;
55037;SDS011;40937;53.594;10.034;2023-04-01T16:32:35;6.90;;;6.22;;
55037;SDS011;40937;53.594;10.034;2023-04-01T16:35:15;10.70;;;7.18;;
55037;SDS011;40937;53.594;10.034;2023-04-01T16:37:53;8.07;;;5.72;;
55037;SDS011;40937;53.594;10.034;2023-04-01T16:43:05;6.30;;;5.70;;
55037;SDS011;40937;53.594;10.034;2023-04-01T16:45:38;10.65;;;7.20;;
55037;SDS011;40937;53.594;10.034;2023-04-01T16:48:12;9.67;;;6.67;;
55037;SDS011;40937;53.594;10.034;2023-04-01T16:50:43;11.27;;;6.88;;
55037;SDS011;40937;53.594;10.034;2023-04-01T16:53:18;9.75;;;6.43;;
55037;SDS011;40937;53.594;10.034;2023-04-01T16:55:52;8.85;;;6.20;;
55037;SDS011;40937;53.594;10.034;2023-04-01T16:58:26;12.20;;;7.93;;
55037;SDS011;40937;53.594;10.034;2023-04-01T17:01:00;8.75;;;6.57;;
55037;SDS011;40937;53.594;10.034;2023-04-01T17:03:33;14.98;;;6.95;;
55037;SDS011;40937;53.594;10.034;2023-04-01T17:06:12;8.80;;;6.03;;
55037;SDS011;40937;53.594;10.034;2023-04-01T17:08:55;8.43;;;5.95;;
55037;SDS011;40937;53.594;10.034;2023-04-01T17:11:34;8.73;;;6.43;;
55037;SDS011;40937;53.594;10.034;2023-04-01T17:14:10;9.73;;;5.93;;
55037;SDS011;40937;53.594;10.034;2023-04-01T17:16:47;16.73;;;7.90;;
55037;SDS011;40937;53.594;10.034;2023-04-01T17:19:27;94.38;;;39.42;;
55037;SDS011;40937;53.594;10.034;2023-04-01T17:22:21;11.02;;;5.60;;
55037;SDS011;40937;53.594;10.034;2023-04-01T17:24:59;76.68;;;30.40;;
55037;SDS011;40937;53.594;10.034;2023-04-01T17:27:40;35.17;;;17.27;;
55037;SDS011;40937;53.594;10.034;2023-04-01T17:30:17;9.70;;;5.65;;
55037;SDS011;40937;53.594;10.034;2023-04-01T17:32:56;18.40;;;5.75;;
55037;SDS011;40937;53.594;10.034;2023-04-01T17:35:47;20.17;;;10.57;;